Time;durP1;ratioP1;P1;durP2;ratioP2;P2;SDS_P1;SDS_P2;PMS_P1;PMS_P2;Temp;Humidity;BMP_temperature;BMP_pressure;BME280_temperature;BME280_humidity;BME280_pressure;Samples;Min_cycle;Max_cycle;Signal;HPM_P1;HPM_P2
2023/08/29 00:00:28;;;;;;;7.15;5.40;;;;;;;-148.88;100.00;-17125.47;4995341;28;20030;-88
2023/08/29 00:02:57;;;;;;;7.53;5.40;;;;;;;-148.88;100.00;-17125.47;4996496;28;20084;-89
2023/08/29 00:05:22;;;;;;;8.10;5.40;;;;;;;-148.88;100.00;-17125.47;4995249;28;20027;-87
2023/08/29 00:07:47;;;;;;;7.38;5.10;;;;;;;-148.88;100.00;-17125.47;4996541;28;20065;-88
2023/08/29 00:10:13;;;;;;;6.88;5.57;;;;;;;-148.88;100.00;-17125.47;4997046;28;20045;-89
2023/08/29 00:12:41;;;;;;;7.10;6.07;;;;;;;-148.88;100.00;-17125.47;4997148;28;20397;-89
2023/08/29 00:15:10;;;;;;;8.77;6.22;;;;;;;-148.88;100.00;-17125.47;4995818;28;20076;-88
2023/08/29 00:17:36;;;;;;;8.68;6.00;;;;;;;-148.88;100.00;-17125.47;4995352;28;20409;-88
2023/08/29 00:20:02;;;;;;;8.18;6.70;;;;;;;-148.88;100.00;-17125.47;4997138;28;20454;-88
2023/08/29 00:22:33;;;;;;;8.30;6.28;;;;;;;-148.88;100.00;-17125.47;4996426;28;20022;-89
2023/08/29 00:25:00;;;;;;;9.18;6.30;;;;;;;-148.88;100.00;-17125.47;4996720;28;20104;-87
2023/08/29 00:27:31;;;;;;;6.80;5.57;;;;;;;-148.88;100.00;-17125.47;4995223;28;20026;-88
2023/08/29 00:29:59;;;;;;;7.43;5.70;;;;;;;-148.88;100.00;-17125.47;4996440;28;20026;-87
2023/08/29 00:32:25;;;;;;;6.63;5.50;;;;;;;-148.88;100.00;-17125.47;4995002;28;20038;-88
2023/08/29 00:34:50;;;;;;;7.55;5.70;;;;;;;-148.88;100.00;-17125.47;4995096;28;20105;-90
2023/08/29 00:37:24;;;;;;;6.85;5.22;;;;;;;-148.88;100.00;-17125.47;4995294;28;20378;-89
2023/08/29 00:40:09;;;;;;;8.63;6.25;;;;;;;-148.88;100.00;-17125.47;4995989;28;20045;-89
2023/08/29 00:42:34;;;;;;;8.80;6.63;;;;;;;-148.88;100.00;-17125.47;4994572;28;20045;-88
2023/08/29 00:45:00;;;;;;;7.70;5.90;;;;;;;-148.88;100.00;-17125.47;4996082;28;20022;-88
2023/08/29 00:47:43;;;;;;;6.65;5.57;;;;;;;-148.88;100.00;-17125.47;4994658;28;20085;-89
2023/08/29 00:50:15;;;;;;;7.72;5.55;;;;;;;-148.88;100.00;-17125.47;4995536;28;20030;-88
2023/08/29 00:52:41;;;;;;;8.68;6.78;;;;;;;-148.88;100.00;-17125.47;4995096;28;20066;-86
2023/08/29 00:55:08;;;;;;;8.90;6.68;;;;;;;-148.88;100.00;-17125.47;4994793;28;20050;-87
2023/08/29 00:57:34;;;;;;;8.13;7.15;;;;;;;-148.88;100.00;-17125.47;4995173;28;20034;-87
2023/08/29 01:00:05;;;;;;;12.30;6.82;;;;;;;-148.88;100.00;-17125.47;4995749;28;20441;-86
2023/08/29 01:02:36;;;;;;;9.00;6.88;;;;;;;-148.88;100.00;-17125.47;4994217;28;20511;-86
2023/08/29 01:05:09;;;;;;;8.25;6.78;;;;;;;-148.88;100.00;-17125.47;4994553;28;20026;-88
2023/08/29 01:07:35;;;;;;;9.10;7.57;;;;;;;-148.88;100.00;-17125.47;4994741;28;20510;-86
2023/08/29 01:10:04;;;;;;;10.43;7.50;;;;;;;-148.88;100.00;-17125.47;4993831;28;20101;-87
2023/08/29 01:12:46;;;;;;;7.72;6.88;;;;;;;-148.88;100.00;-17125.47;4995978;28;20023;-87
2023/08/29 01:15:19;;;;;;;8.38;6.80;;;;;;;-148.88;100.00;-17125.47;4995770;28;20019;-88
2023/08/29 01:18:26;;;;;;;9.00;6.10;;;;;;;-148.88;100.00;-17125.47;4995811;28;20026;-87
2023/08/29 01:21:30;;;;;;;7.15;6.45;;;;;;;-148.88;100.00;-17125.47;4986516;28;20030;-87
2023/08/29 01:24:16;;;;;;;8.30;6.15;;;;;;;-148.88;100.00;-17125.47;4994905;28;20044;-88
2023/08/29 01:26:53;;;;;;;10.07;6.38;;;;;;;-148.88;100.00;-17125.47;4994781;28;20121;-89
2023/08/29 01:29:20;;;;;;;8.45;6.40;;;;;;;-148.88;100.00;-17125.47;4994734;28;20076;-88
2023/08/29 01:31:46;;;;;;;7.15;6.10;;;;;;;-148.88;100.00;-17125.47;4994139;28;20034;-87
2023/08/29 01:34:12;;;;;;;7.95;6.38;;;;;;;-148.88;100.00;-17125.47;4994138;28;20030;-88
2023/08/29 01:36:42;;;;;;;10.15;6.90;;;;;;;-148.88;100.00;-17125.47;4993932;28;20108;-87
2023/08/29 01:39:07;;;;;;;8.20;7.10;;;;;;;-148.88;100.00;-17125.47;4996309;28;20109;-88
2023/08/29 01:41:33;;;;;;;8.90;6.28;;;;;;;-148.88;100.00;-17125.47;4994887;28;20456;-88
2023/08/29 01:44:06;;;;;;;8.65;6.70;;;;;;;-148.88;100.00;-17125.47;4993752;28;20115;-88
2023/08/29 01:46:36;;;;;;;7.88;7.00;;;;;;;-148.88;100.00;-17125.47;4995048;28;20038;-87
2023/08/29 01:49:08;;;;;;;9.02;7.82;;;;;;;-148.88;100.00;-17125.47;4993337;28;20519;-88
2023/08/29 01:51:33;;;;;;;10.15;7.80;;;;;;;-148.88;100.00;-17125.47;4993381;28;20034;-87
2023/08/29 01:54:08;;;;;;;9.63;8.63;;;;;;;-148.88;100.00;-17125.47;4994499;28;20022;-87
2023/08/29 01:56:35;;;;;;;11.63;7.65;;;;;;;-148.88;100.00;-17125.47;4994825;28;20022;-87
2023/08/29 01:59:01;;;;;;;9.93;8.35;;;;;;;-148.88;100.00;-17125.47;4994949;28;20046;-88
2023/08/29 02:01:28;;;;;;;10.85;9.10;;;;;;;-148.88;100.00;-17125.47;4995069;28;20389;-88
2023/08/29 02:03:55;;;;;;;10.73;7.97;;;;;;;-148.88;100.00;-17125.47;4994073;28;20125;-88
2023/08/29 02:06:20;;;;;;;9.27;8.25;;;;;;;-148.88;100.00;-17125.47;4994286;28;20038;-88
2023/08/29 02:08:54;;;;;;;8.68;7.75;;;;;;;-148.88;100.00;-17125.47;4993510;28;20057;-87
2023/08/29 02:11:20;;;;;;;8.52;7.55;;;;;;;-148.88;100.00;-17125.47;4994481;28;20038;-88
2023/08/29 02:13:45;;;;;;;9.38;8.07;;;;;;;-148.88;100.00;-17125.47;4993022;28;20117;-88
2023/08/29 02:16:11;;;;;;;8.82;7.68;;;;;;;-148.88;100.00;-17125.47;4994141;28;20036;-88
2023/08/29 02:18:39;;;;;;;10.40;8.70;;;;;;;-148.88;100.00;-17125.47;4994152;28;20034;-88
2023/08/29 02:21:10;;;;;;;11.52;9.40;;;;;;;-148.88;100.00;-17125.47;4994041;28;20027;-89
2023/08/29 02:23:41;;;;;;;14.60;10.88;;;;;;;-148.88;100.00;-17125.47;4994649;28;20501;-88
2023/08/29 02:26:07;;;;;;;13.23;10.02;;;;;;;-148.88;100.00;-17125.47;4993865;28;20638;-87
2023/08/29 02:28:44;;;;;;;11.07;9.93;;;;;;;-148.88;100.00;-17125.47;4992966;28;20083;-88
2023/08/29 02:31:18;;;;;;;13.07;10.27;;;;;;;-148.88;100.00;-17125.47;4992323;28;20029;-88
2023/08/29 02:33:43;;;;;;;;;;;;;;;-148.88;100.00;-17125.47;4993883;28;20048;-87
2023/08/29 02:36:09;;;;;;;9.50;8.50;;;;;;;-148.88;100.00;-17125.47;4994092;28;19910;-88
2023/08/29 02:38:35;;;;;;;10.68;9.38;;;;;;;-148.88;100.00;-17125.47;4992847;28;20026;-88
2023/08/29 02:41:04;;;;;;;10.30;9.20;;;;;;;-148.88;100.00;-17125.47;4994192;28;20037;-89
2023/08/29 02:43:29;;;;;;;12.60;10.45;;;;;;;-148.88;100.00;-17125.47;4993417;28;20028;-88
2023/08/29 02:45:55;;;;;;;12.68;11.32;;;;;;;-148.88;100.00;-17125.47;4994022;28;20022;-88
2023/08/29 02:48:20;;;;;;;13.90;11.63;;;;;;;-148.88;100.00;-17125.47;4994114;28;20030;-88
2023/08/29 02:50:49;;;;;;;14.50;11.90;;;;;;;-148.88;100.00;-17125.47;4992253;28;20473;-88
2023/08/29 02:53:18;;;;;;;14.32;11.48;;;;;;;-148.88;100.00;-17125.47;4992596;28;20019;-88
2023/08/29 02:55:59;;;;;;;15.10;11.80;;;;;;;-148.88;100.00;-17125.47;4994077;28;20536;-88
2023/08/29 02:58:35;;;;;;;13.70;12.27;;;;;;;-148.88;100.00;-17125.47;4992148;28;20030;-87
2023/08/29 03:01:00;;;;;;;16.50;12.45;;;;;;;-148.88;100.00;-17125.47;4993725;28;20124;-88
2023/08/29 03:03:26;;;;;;;15.52;12.57;;;;;;;-148.88;100.00;-17125.47;4994057;28;20424;-88
2023/08/29 03:05:56;;;;;;;15.85;13.23;;;;;;;-148.88;100.00;-17125.47;4992959;28;20069;-89
2023/08/29 03:08:31;;;;;;;16.63;12.65;;;;;;;-148.88;100.00;-17125.47;4992346;28;20026;-88
2023/08/29 03:10:56;;;;;;;16.85;13.98;;;;;;;-148.88;100.00;-17125.47;4993989;28;20548;-88
2023/08/29 03:13:22;;;;;;;17.40;14.02;;;;;;;-148.88;100.00;-17125.47;4992661;28;20065;-88
2023/08/29 03:15:48;;;;;;;17.30;14.70;;;;;;;-148.88;100.00;-17125.47;4992775;28;20053;-88
2023/08/29 03:18:14;;;;;;;18.35;13.50;;;;;;;-148.88;100.00;-17125.47;4994397;28;20026;-88
2023/08/29 03:20:43;;;;;;;15.00;13.50;;;;;;;-148.88;100.00;-17125.47;4993476;28;20060;-88
2023/08/29 03:23:09;;;;;;;16.02;14.20;;;;;;;-148.88;100.00;-17125.47;4993140;28;20082;-87
2023/08/29 03:25:35;;;;;;;15.38;13.30;;;;;;;-148.88;100.00;-17125.47;4993803;28;20441;-88
2023/08/29 03:28:00;;;;;;;15.05;12.63;;;;;;;-148.88;100.00;-17125.47;4994044;28;20019;-88
2023/08/29 03:30:30;;;;;;;13.98;12.40;;;;;;;-148.88;100.00;-17125.47;4992477;28;20030;-88
2023/08/29 03:32:55;;;;;;;15.02;13.02;;;;;;;-148.88;100.00;-17125.47;4992497;28;20033;-87
2023/08/29 03:35:36;;;;;;;14.13;12.63;;;;;;;-148.88;100.00;-17125.47;4993418;28;20023;-88
2023/08/29 03:38:02;;;;;;;15.35;12.93;;;;;;;-148.88;100.00;-17125.47;4994038;28;20018;-88
2023/08/29 03:40:30;;;;;;;15.32;12.55;;;;;;;-148.88;100.00;-17125.47;4992593;28;20046;-85
2023/08/29 03:42:56;;;;;;;14.63;11.32;;;;;;;-148.88;100.00;-17125.47;4996092;28;20038;-88
2023/08/29 03:45:33;;;;;;;13.70;12.30;;;;;;;-148.88;100.00;-17125.47;4998514;28;20026;-88
2023/08/29 03:48:05;;;;;;;13.82;12.35;;;;;;;-148.88;100.00;-17125.47;4998335;28;20103;-87
2023/08/29 03:50:36;;;;;;;14.55;12.93;;;;;;;-148.88;100.00;-17125.47;4995407;28;20129;-85
2023/08/29 03:53:02;;;;;;;16.83;14.13;;;;;;;-148.88;100.00;-17125.47;4998759;28;20053;-85
2023/08/29 03:55:28;;;;;;;15.25;13.25;;;;;;;-148.88;100.00;-17125.47;4999476;28;20022;-87
2023/08/29 03:57:56;;;;;;;16.35;14.60;;;;;;;-148.88;100.00;-17125.47;4998843;28;20022;-86
2023/08/29 04:00:22;;;;;;;17.13;15.07;;;;;;;-148.88;100.00;-17125.47;4997921;28;20026;-87
2023/08/29 04:02:48;;;;;;;17.42;15.63;;;;;;;-148.88;100.00;-17125.47;4997916;28;20546;-86
2023/08/29 04:05:15;;;;;;;20.88;16.52;;;;;;;-148.88;100.00;-17125.47;4995933;28;20110;-85
2023/08/29 04:07:59;;;;;;;17.67;15.27;;;;;;;-148.88;100.00;-17125.47;4997652;28;20022;-87
2023/08/29 04:10:28;;;;;;;19.98;16.25;;;;;;;-148.88;100.00;-17125.47;4995619;28;20037;-87
2023/08/29 04:12:53;;;;;;;19.10;15.98;;;;;;;-148.88;100.00;-17125.47;4997034;28;20042;-85
2023/08/29 04:15:37;;;;;;;19.75;16.60;;;;;;;-148.88;100.00;-17125.47;4996843;28;20029;-86
2023/08/29 04:18:03;;;;;;;;;;;;;;;-148.88;100.00;-17125.47;4997273;28;20026;-86
2023/08/29 04:20:47;;;;;;;21.55;16.40;;;;;;;-148.88;100.00;-17125.47;4996869;28;19909;-87
2023/08/29 04:23:20;;;;;;;20.25;16.33;;;;;;;-148.88;100.00;-17125.47;4995130;28;20118;-87
2023/08/29 04:25:46;;;;;;;19.05;16.92;;;;;;;-148.88;100.00;-17125.47;4998152;28;20057;-85
2023/08/29 04:28:19;;;;;;;20.50;17.25;;;;;;;-148.88;100.00;-17125.47;4998418;28;20026;-85
2023/08/29 04:31:06;;;;;;;20.77;17.90;;;;;;;-148.88;100.00;-17125.47;4997350;28;20492;-84
2023/08/29 04:33:59;;;;;;;21.85;17.13;;;;;;;-148.88;100.00;-17125.47;4998834;28;20033;-90
2023/08/29 04:36:36;;;;;;;21.60;17.98;;;;;;;-148.88;100.00;-17125.47;4994467;28;20034;-87
2023/08/29 04:39:02;;;;;;;20.58;17.90;;;;;;;-148.88;100.00;-17125.47;4994878;28;20052;-87
2023/08/29 04:41:28;;;;;;;22.58;18.27;;;;;;;-148.88;100.00;-17125.47;4994820;28;20022;-88
2023/08/29 04:44:14;;;;;;;21.05;17.05;;;;;;;-148.88;100.00;-17125.47;4996376;28;20045;-85
2023/08/29 04:46:40;;;;;;;19.35;17.25;;;;;;;-148.88;100.00;-17125.47;4997493;28;20389;-88
2023/08/29 04:49:17;;;;;;;22.85;18.17;;;;;;;-148.88;100.00;-17125.47;4996554;28;20026;-87
2023/08/29 04:51:43;;;;;;;19.67;16.52;;;;;;;-148.88;100.00;-17125.47;4995169;28;20022;-86
2023/08/29 04:54:08;;;;;;;19.40;16.60;;;;;;;-148.88;100.00;-17125.47;4994098;28;20445;-87
2023/08/29 04:56:44;;;;;;;;;;;;;;;;;;;;;
2023/08/29 04:59:09;;;;;;;20.85;16.83;;;;;;;-148.88;100.00;-17125.47;4996247;28;20040;-87
2023/08/29 05:01:38;;;;;;;19.92;15.88;;;;;;;-148.88;100.00;-17125.47;4995840;28;20105;-87
2023/08/29 05:04:04;;;;;;;19.65;16.10;;;;;;;-148.88;100.00;-17125.47;4996329;28;20488;-89
2023/08/29 05:06:30;;;;;;;21.05;17.02;;;;;;;-148.88;100.00;-17125.47;4996412;28;20054;-85
2023/08/29 05:08:55;;;;;;;19.95;16.58;;;;;;;-148.88;100.00;-17125.47;4995578;28;20448;-86
2023/08/29 05:11:20;;;;;;;22.17;16.67;;;;;;;-148.88;100.00;-17125.47;4996676;28;20022;-88
2023/08/29 05:13:49;;;;;;;20.45;16.80;;;;;;;-148.88;100.00;-17125.47;4995355;28;20374;-88
2023/08/29 05:16:32;;;;;;;20.40;16.30;;;;;;;-148.88;100.00;-17125.47;4997777;28;20057;-88
2023/08/29 05:18:58;;;;;;;19.27;16.45;;;;;;;-148.88;100.00;-17125.47;4995372;28;20025;-88
2023/08/29 05:21:27;;;;;;;20.55;16.85;;;;;;;-148.88;100.00;-17125.47;4994752;28;20081;-88
2023/08/29 05:23:54;;;;;;;18.60;16.42;;;;;;;-148.88;100.00;-17125.47;4996491;28;20057;-88
2023/08/29 05:26:19;;;;;;;20.75;16.33;;;;;;;-148.88;100.00;-17125.47;4996527;28;20106;-87
2023/08/29 05:28:56;;;;;;;20.95;16.70;;;;;;;-148.88;100.00;-17125.47;4994087;28;20030;-88
2023/08/29 05:31:25;;;;;;;21.83;16.25;;;;;;;-148.88;100.00;-17125.47;4993952;28;20045;-87
2023/08/29 05:33:56;;;;;;;24.88;17.58;;;;;;;-148.88;100.00;-17125.47;4995231;28;20054;-88
2023/08/29 05:36:22;;;;;;;21.58;17.20;;;;;;;-148.88;100.00;-17125.47;4994257;28;20485;-87
2023/08/29 05:38:50;;;;;;;22.02;16.65;;;;;;;-148.88;100.00;-17125.47;4994465;28;20033;-87
2023/08/29 05:41:16;;;;;;;19.85;17.23;;;;;;;-148.88;100.00;-17125.47;4995646;28;20030;-86
2023/08/29 05:43:42;;;;;;;22.42;17.83;;;;;;;-148.88;100.00;-17125.47;4994264;28;20084;-87
2023/08/29 05:46:07;;;;;;;20.77;18.33;;;;;;;-148.88;100.00;-17125.47;4995526;28;20573;-88
2023/08/29 05:48:32;;;;;;;22.90;18.85;;;;;;;-148.88;100.00;-17125.47;4998838;28;20026;-87
2023/08/29 05:50:58;;;;;;;24.33;19.02;;;;;;;-148.88;100.00;-17125.47;4994294;28;20498;-86
2023/08/29 05:53:38;;;;;;;23.92;18.92;;;;;;;-148.88;100.00;-17125.47;4993894;28;20397;-86
2023/08/29 05:56:07;;;;;;;24.73;20.20;;;;;;;-148.88;100.00;-17125.47;4994178;28;20112;-85
2023/08/29 05:58:32;;;;;;;24.90;19.50;;;;;;;-148.88;100.00;-17125.47;4995608;28;20029;-84
2023/08/29 06:00:57;;;;;;;23.95;20.00;;;;;;;-148.88;100.00;-17125.47;4994682;28;20027;-83
2023/08/29 06:03:26;;;;;;;23.85;19.95;;;;;;;-148.88;100.00;-17125.47;4996486;28;20022;-87
2023/08/29 06:05:55;;;;;;;24.17;19.92;;;;;;;-148.88;100.00;-17125.47;4994747;28;20034;-86
2023/08/29 06:08:20;;;;;;;27.70;21.20;;;;;;;-148.88;100.00;-17125.47;4994055;28;20030;-87
2023/08/29 06:10:52;;;;;;;29.38;23.08;;;;;;;-148.88;100.00;-17125.47;4993142;28;20049;-86
2023/08/29 06:13:18;;;;;;;29.98;22.95;;;;;;;-148.88;100.00;-17125.47;4994018;28;20041;-87
2023/08/29 06:16:01;;;;;;;35.25;24.05;;;;;;;-148.88;100.00;-17125.47;4994193;28;20022;-86
2023/08/29 06:18:33;;;;;;;28.85;23.80;;;;;;;-148.88;100.00;-17125.47;4993152;28;20061;-85
2023/08/29 06:20:59;;;;;;;29.30;22.80;;;;;;;-148.88;100.00;-17125.47;4994310;28;20030;-86
2023/08/29 06:23:24;;;;;;;28.65;22.92;;;;;;;-148.88;100.00;-17125.47;4995201;28;20045;-89
2023/08/29 06:28:39;;;;;;;28.70;23.42;;;;;;;-148.88;100.00;-17125.47;4973977;28;20088;-90
2023/08/29 06:31:05;;;;;;;30.25;22.70;;;;;;;-148.88;100.00;-17125.47;4993116;28;20034;-88
2023/08/29 06:33:31;;;;;;;29.02;22.85;;;;;;;-148.88;100.00;-17125.47;4992924;28;20022;-87
2023/08/29 06:35:57;;;;;;;28.63;23.42;;;;;;;-148.88;100.00;-17125.47;4994194;28;20022;-90
2023/08/29 06:38:22;;;;;;;29.70;23.20;;;;;;;-148.88;100.00;-17125.47;4993478;28;20026;-88
2023/08/29 06:41:00;;;;;;;25.40;21.83;;;;;;;-148.88;100.00;-17125.47;4993798;28;20490;-88
2023/08/29 06:43:35;;;;;;;25.65;22.10;;;;;;;-148.88;100.00;-17125.47;4992737;28;20026;-87
2023/08/29 06:46:03;;;;;;;27.42;21.75;;;;;;;-148.88;100.00;-17125.47;4993023;28;20362;-88
2023/08/29 06:48:29;;;;;;;24.33;20.08;;;;;;;-148.88;100.00;-17125.47;4993468;28;20022;-87
2023/08/29 06:50:54;;;;;;;27.35;21.48;;;;;;;-148.88;100.00;-17125.47;4993089;28;20030;-87
2023/08/29 06:53:20;;;;;;;25.33;20.23;;;;;;;-148.88;100.00;-17125.47;4992487;28;20053;-86
2023/08/29 06:55:46;;;;;;;24.58;20.35;;;;;;;-148.88;100.00;-17125.47;4993393;28;20101;-88
2023/08/29 06:58:12;;;;;;;23.38;20.10;;;;;;;-148.88;100.00;-17125.47;4993029;28;20030;-88
2023/08/29 07:00:38;;;;;;;23.40;19.55;;;;;;;-148.88;100.00;-17125.47;4993360;28;20045;-87
2023/08/29 07:03:15;;;;;;;22.02;19.48;;;;;;;-148.88;100.00;-17125.47;4994018;28;20026;-87
2023/08/29 07:05:41;;;;;;;24.33;19.85;;;;;;;-148.88;100.00;-17125.47;4994371;28;20022;-87
2023/08/29 07:08:06;;;;;;;20.85;18.58;;;;;;;-148.88;100.00;-17125.47;4992504;28;20031;-90
2023/08/29 07:10:32;;;;;;;23.67;18.60;;;;;;;-148.88;100.00;-17125.47;4992983;28;20085;-88
2023/08/29 07:12:58;;;;;;;22.98;19.30;;;;;;;-148.88;100.00;-17125.47;4992486;28;20032;-88
2023/08/29 07:15:23;;;;;;;21.70;18.15;;;;;;;-148.88;100.00;-17125.47;4992527;28;20444;-87
2023/08/29 07:17:49;;;;;;;21.80;17.77;;;;;;;-148.88;100.00;-17125.47;4995731;28;20088;-89
2023/08/29 07:20:21;;;;;;;25.45;18.75;;;;;;;-148.88;100.00;-17125.47;4997115;28;20117;-87
2023/08/29 07:22:46;;;;;;;22.33;18.73;;;;;;;-148.88;100.00;-17125.47;4997523;28;20050;-86
2023/08/29 07:25:13;;;;;;;22.67;18.65;;;;;;;-148.88;100.00;-17125.47;4997525;28;20070;-88
2023/08/29 07:27:39;;;;;;;20.85;18.00;;;;;;;-148.88;100.00;-17125.47;4996470;28;20457;-87
2023/08/29 07:30:06;;;;;;;18.48;16.55;;;;;;;-148.88;100.00;-17125.47;4996393;28;20031;-86
2023/08/29 07:32:36;;;;;;;21.38;18.55;;;;;;;-148.88;100.00;-17125.47;4996959;28;20117;-88
2023/08/29 07:35:19;;;;;;;22.67;18.05;;;;;;;-148.88;100.00;-17125.47;4996215;28;20116;-88
2023/08/29 07:37:45;;;;;;;20.52;17.30;;;;;;;-148.88;100.00;-17125.47;4997002;28;20102;-87
2023/08/29 07:40:11;;;;;;;21.95;17.25;;;;;;;-148.88;100.00;-17125.47;4997524;28;20066;-87
2023/08/29 07:42:36;;;;;;;20.20;16.98;;;;;;;-148.88;100.00;-17125.47;4997118;28;20030;-87
2023/08/29 07:45:09;;;;;;;21.17;18.02;;;;;;;-148.88;100.00;-17125.47;4995792;28;20026;-88
2023/08/29 07:47:34;;;;;;;19.65;16.77;;;;;;;-148.88;100.00;-17125.47;4995846;28;20022;-88
2023/08/29 07:50:06;;;;;;;21.67;17.00;;;;;;;-148.88;100.00;-17125.47;4996048;28;20045;-89
2023/08/29 07:52:32;;;;;;;21.13;16.05;;;;;;;-148.88;100.00;-17125.47;4996813;28;20022;-89
2023/08/29 07:54:58;;;;;;;20.05;15.32;;;;;;;-148.88;100.00;-17125.47;4997246;28;20029;-88
2023/08/29 07:57:31;;;;;;;19.58;16.10;;;;;;;-148.88;100.00;-17125.47;4996493;28;20018;-89
2023/08/29 08:00:03;;;;;;;22.35;17.35;;;;;;;-148.88;100.00;-17125.47;4996318;28;20030;-88
2023/08/29 08:02:38;;;;;;;18.80;15.90;;;;;;;-148.88;100.00;-17125.47;4995725;28;20030;-88
2023/08/29 08:05:16;;;;;;;18.08;15.93;;;;;;;-148.88;100.00;-17125.47;4995541;28;20556;-86
2023/08/29 08:08:09;;;;;;;19.02;15.93;;;;;;;-148.88;100.00;-17125.47;4995709;28;20037;-88
2023/08/29 08:10:37;;;;;;;16.75;14.18;;;;;;;-148.88;100.00;-17125.47;4995392;28;20026;-89
2023/08/29 08:13:10;;;;;;;18.45;14.35;;;;;;;-148.88;100.00;-17125.47;4995814;28;20105;-88
2023/08/29 08:15:39;;;;;;;17.42;15.02;;;;;;;-148.88;100.00;-17125.47;4996851;28;20555;-88
2023/08/29 08:18:04;;;;;;;16.13;14.20;;;;;;;-148.88;100.00;-17125.47;4998287;28;20038;-87
2023/08/29 08:20:44;;;;;;;16.00;14.38;;;;;;;-148.88;100.00;-17125.47;4996982;28;20026;-88
2023/08/29 08:23:12;;;;;;;15.23;13.63;;;;;;;-148.88;100.00;-17125.47;4995885;28;20028;-89
2023/08/29 08:25:47;;;;;;;16.20;13.50;;;;;;;-148.88;100.00;-17125.47;4994997;28;20044;-88
2023/08/29 08:28:31;;;;;;;15.20;12.38;;;;;;;-148.88;100.00;-17125.47;4994014;28;20034;-87
2023/08/29 08:30:56;;;;;;;16.27;12.57;;;;;;;-148.88;100.00;-17125.47;4994748;28;20173;-88
2023/08/29 08:33:25;;;;;;;15.85;12.18;;;;;;;-148.88;100.00;-17125.47;4995132;28;20109;-87
2023/08/29 08:35:54;;;;;;;15.40;13.10;;;;;;;-148.88;100.00;-17125.47;4995133;28;20035;-89
2023/08/29 08:38:25;;;;;;;16.75;13.25;;;;;;;-148.88;100.00;-17125.47;4994753;28;20165;-88
2023/08/29 08:41:01;;;;;;;14.30;12.75;;;;;;;-148.88;100.00;-17125.47;4994698;28;20026;-89
2023/08/29 08:43:51;;;;;;;14.50;12.30;;;;;;;-148.88;100.00;-17125.47;4995281;28;20113;-88
2023/08/29 08:46:19;;;;;;;13.50;12.02;;;;;;;-148.88;100.00;-17125.47;4994986;28;20457;-87
2023/08/29 08:48:48;;;;;;;13.75;11.63;;;;;;;-148.88;100.00;-17125.47;4995367;28;20037;-87
2023/08/29 08:51:15;;;;;;;13.82;10.70;;;;;;;-148.88;100.00;-17125.47;4995634;28;20022;-88
2023/08/29 08:53:47;;;;;;;13.57;10.95;;;;;;;-148.88;100.00;-17125.47;4996499;28;20026;-89
2023/08/29 08:56:18;;;;;;;11.38;10.20;;;;;;;-148.88;100.00;-17125.47;4996288;28;20023;-85
2023/08/29 08:58:43;;;;;;;11.95;10.70;;;;;;;-148.88;100.00;-17125.47;4995997;28;20023;-87
2023/08/29 09:01:12;;;;;;;15.00;10.50;;;;;;;-148.88;100.00;-17125.47;4995795;28;20109;-88
2023/08/29 09:03:40;;;;;;;10.75;8.00;;;;;;;-148.88;100.00;-17125.47;4994546;28;20030;-87
2023/08/29 09:06:07;;;;;;;11.15;9.02;;;;;;;-148.88;100.00;-17125.47;4994333;28;20069;-87
2023/08/29 09:08:52;;;;;;;10.63;9.52;;;;;;;-148.88;100.00;-17125.47;4994195;28;20213;-87
2023/08/29 09:11:24;;;;;;;12.18;9.65;;;;;;;-148.88;100.00;-17125.47;5038626;23;20116;-84
2023/08/29 09:13:57;;;;;;;11.20;9.50;;;;;;;-148.88;100.00;-17125.47;5036554;28;20072;-83
2023/08/29 09:16:29;;;;;;;14.10;8.48;;;;;;;-148.88;100.00;-17125.47;5035692;28;20441;-83
2023/08/29 09:19:05;;;;;;;10.95;9.13;;;;;;;-148.88;100.00;-17125.47;5035483;28;20033;-83
2023/08/29 09:21:31;;;;;;;10.10;8.65;;;;;;;-148.88;100.00;-17125.47;5037218;28;20492;-84
2023/08/29 09:24:09;;;;;;;10.05;7.15;;;;;;;-148.88;100.00;-17125.47;5036144;28;20025;-84
2023/08/29 09:26:41;;;;;;;12.75;7.88;;;;;;;-148.88;100.00;-17125.47;5036602;28;20032;-85
2023/08/29 09:29:20;;;;;;;9.18;7.53;;;;;;;-148.88;100.00;-17125.47;5036577;28;20079;-82
2023/08/29 09:31:51;;;;;;;8.32;7.05;;;;;;;-148.88;100.00;-17125.47;5035057;28;20033;-83
2023/08/29 09:34:32;;;;;;;8.57;5.45;;;;;;;-148.88;100.00;-17125.47;5035840;28;20021;-83
2023/08/29 09:37:07;;;;;;;7.25;5.40;;;;;;;-148.88;100.00;-17125.47;5034515;28;20045;-83
2023/08/29 09:39:46;;;;;;;6.97;4.93;;;;;;;-148.88;100.00;-17125.47;5034620;28;20392;-84
2023/08/29 09:42:19;;;;;;;6.05;3.97;;;;;;;-148.88;100.00;-17125.47;5036509;28;20098;-85
2023/08/29 09:44:49;;;;;;;7.57;5.45;;;;;;;-148.88;100.00;-17125.47;5035077;28;20075;-83
2023/08/29 09:47:26;;;;;;;6.28;3.40;;;;;;;-148.88;100.00;-17125.47;5034871;28;20037;-82
2023/08/29 09:50:03;;;;;;;6.97;3.75;;;;;;;-148.88;100.00;-17125.47;5034013;28;20086;-83
2023/08/29 09:52:31;;;;;;;6.10;4.70;;;;;;;-148.88;100.00;-17125.47;5034786;28;20033;-83
2023/08/29 09:55:01;;;;;;;6.18;4.47;;;;;;;-148.88;100.00;-17125.47;5034716;28;20021;-83
2023/08/29 09:57:35;;;;;;;5.75;3.70;;;;;;;-148.88;100.00;-17125.47;5034450;28;20022;-83
2023/08/29 10:00:01;;;;;;;5.43;4.00;;;;;;;-148.88;100.00;-17125.47;5035127;28;20060;-83
2023/08/29 10:02:40;;;;;;;4.93;3.17;;;;;;;-148.88;100.00;-17125.47;5035575;28;20026;-83
2023/08/29 10:05:12;;;;;;;5.72;3.22;;;;;;;-148.88;100.00;-17125.47;5035603;28;20021;-84
2023/08/29 10:08:06;;;;;;;5.72;5.13;;;;;;;-148.88;100.00;-17125.47;5033656;28;20030;-84
2023/08/29 10:10:53;;;;;;;5.82;3.80;;;;;;;-148.88;100.00;-17125.47;5024648;28;20407;-84
2023/08/29 10:13:19;;;;;;;4.97;3.20;;;;;;;-148.88;100.00;-17125.47;5035932;28;20110;-84
2023/08/29 10:15:47;;;;;;;4.75;2.88;;;;;;;-148.88;100.00;-17125.47;5036310;28;20035;-85
2023/08/29 10:18:27;;;;;;;7.63;3.55;;;;;;;-148.88;100.00;-17125.47;5035686;28;20021;-83
2023/08/29 10:20:54;;;;;;;5.63;4.70;;;;;;;-148.88;100.00;-17125.47;5034124;28;20021;-84
2023/08/29 10:23:20;;;;;;;6.43;3.72;;;;;;;-148.88;100.00;-17125.47;5034211;28;20484;-82
2023/08/29 10:26:00;;;;;;;6.80;3.33;;;;;;;-148.88;100.00;-17125.47;5033140;28;20066;-83
2023/08/29 10:28:25;;;;;;;5.28;2.70;;;;;;;-148.88;100.00;-17125.47;5034525;28;20044;-84
2023/08/29 10:30:54;;;;;;;3.67;2.72;;;;;;;-148.88;100.00;-17125.47;5034114;28;20029;-84
2023/08/29 10:33:22;;;;;;;7.53;2.78;;;;;;;-148.88;98.20;-17125.47;5034802;28;20017;-84
2023/08/29 10:35:48;;;;;;;3.90;1.35;;;;;;;-148.88;96.20;-17125.47;5033799;28;20017;-84
2023/08/29 10:38:24;;;;;;;3.13;1.50;;;;;;;-148.88;97.56;-17125.47;5034956;28;20025;-83
2023/08/29 10:41:06;;;;;;;3.03;1.40;;;;;;;-148.88;94.43;-17125.47;5035197;28;20035;-84
2023/08/29 10:43:35;;;;;;;3.13;1.30;;;;;;;-148.88;92.47;-17125.47;5035685;28;20052;-84
2023/08/29 10:46:14;;;;;;;3.83;1.15;;;;;;;-148.88;93.37;-17125.47;5034898;28;20025;-84
2023/08/29 10:48:39;;;;;;;3.45;2.40;;;;;;;-148.88;90.92;-17125.47;5034522;28;20033;-85
2023/08/29 10:51:32;;;;;;;4.65;2.65;;;;;;;-148.88;87.90;-17125.47;5032948;28;20396;-84
2023/08/29 10:54:09;;;;;;;8.23;3.20;;;;;;;-148.88;91.90;-17125.47;5034910;28;20024;-85
2023/08/29 10:56:56;;;;;;;3.65;2.63;;;;;;;-148.88;91.38;-17125.47;5033564;28;20026;-85
2023/08/29 10:59:29;;;;;;;4.95;4.15;;;;;;;-148.88;92.75;-17125.47;5033163;28;20049;-85
2023/08/29 11:02:21;;;;;;;4.00;3.35;;;;;;;-148.88;91.31;-17125.47;5034728;28;20495;-85
2023/08/29 11:04:49;;;;;;;4.30;2.85;;;;;;;-148.88;90.88;-17125.47;5034889;28;20025;-86
2023/08/29 11:07:25;;;;;;;4.95;3.00;;;;;;;-148.88;90.99;-17125.47;5033900;28;20052;-85
2023/08/29 11:10:11;;;;;;;5.28;2.80;;;;;;;-148.88;93.39;-17125.47;5033986;28;20029;-85
2023/08/29 11:12:57;;;;;;;4.50;3.30;;;;;;;-148.88;90.73;-17125.47;5032780;28;20030;-84